sensor_id;sensor_type;location;lat;lon;timestamp;P1;durP1;ratioP1;P2;durP2;ratioP2
28509;SDS011;15723;55.684;37.928;2023-02-26T00:01:58;26.58;;;14.93;;
28509;SDS011;15723;55.684;37.928;2023-02-26T00:04:27;25.40;;;15.05;;
28509;SDS011;15723;55.684;37.928;2023-02-26T00:06:53;26.25;;;15.40;;
28509;SDS011;15723;55.684;37.928;2023-02-26T00:09:20;26.92;;;15.90;;
28509;SDS011;15723;55.684;37.928;2023-02-26T00:11:47;31.48;;;16.95;;
28509;SDS011;15723;55.684;37.928;2023-02-26T00:14:15;33.90;;;17.08;;
28509;SDS011;15723;55.684;37.928;2023-02-26T00:16:41;32.30;;;17.85;;
28509;SDS011;15723;55.684;37.928;2023-02-26T00:19:10;32.28;;;16.95;;
28509;SDS011;15723;55.684;37.928;2023-02-26T00:21:36;32.17;;;17.42;;
28509;SDS011;15723;55.684;37.928;2023-02-26T00:24:03;30.75;;;17.48;;
28509;SDS011;15723;55.684;37.928;2023-02-26T00:26:31;32.92;;;17.75;;
28509;SDS011;15723;55.684;37.928;2023-02-26T00:28:59;37.35;;;18.77;;
28509;SDS011;15723;55.684;37.928;2023-02-26T00:31:26;35.00;;;17.58;;
28509;SDS011;15723;55.684;37.928;2023-02-26T00:33:53;34.33;;;18.58;;
28509;SDS011;15723;55.684;37.928;2023-02-26T00:39:00;40.70;;;20.73;;
28509;SDS011;15723;55.684;37.928;2023-02-26T00:41:34;40.25;;;19.75;;
28509;SDS011;15723;55.684;37.928;2023-02-26T00:44:01;40.70;;;18.85;;
28509;SDS011;15723;55.684;37.928;2023-02-26T00:46:33;40.40;;;19.10;;
28509;SDS011;15723;55.684;37.928;2023-02-26T00:49:13;36.38;;;17.63;;
28509;SDS011;15723;55.684;37.928;2023-02-26T00:51:51;41.78;;;19.55;;
28509;SDS011;15723;55.684;37.928;2023-02-26T00:54:24;32.83;;;17.85;;
28509;SDS011;15723;55.684;37.928;2023-02-26T00:56:53;35.08;;;17.92;;
28509;SDS011;15723;55.684;37.928;2023-02-26T00:59:20;36.65;;;19.00;;
28509;SDS011;15723;55.684;37.928;2023-02-26T01:01:47;34.08;;;18.00;;
28509;SDS011;15723;55.684;37.928;2023-02-26T01:04:14;35.38;;;18.73;;
28509;SDS011;15723;55.684;37.928;2023-02-26T01:06:44;33.70;;;16.63;;
28509;SDS011;15723;55.684;37.928;2023-02-26T01:11:47;29.75;;;15.75;;
28509;SDS011;15723;55.684;37.928;2023-02-26T01:14:14;33.88;;;14.73;;
28509;SDS011;15723;55.684;37.928;2023-02-26T01:16:43;35.35;;;16.02;;
28509;SDS011;15723;55.684;37.928;2023-02-26T01:22:28;21.08;;;11.70;;
28509;SDS011;15723;55.684;37.928;2023-02-26T01:25:08;27.30;;;13.27;;
28509;SDS011;15723;55.684;37.928;2023-02-26T01:27:35;30.52;;;12.52;;
28509;SDS011;15723;55.684;37.928;2023-02-26T01:30:02;25.90;;;13.75;;
28509;SDS011;15723;55.684;37.928;2023-02-26T01:32:45;22.98;;;12.38;;
28509;SDS011;15723;55.684;37.928;2023-02-26T01:37:57;24.15;;;11.93;;
28509;SDS011;15723;55.684;37.928;2023-02-26T01:43:50;23.73;;;12.65;;
28509;SDS011;15723;55.684;37.928;2023-02-26T01:46:38;22.63;;;12.00;;
28509;SDS011;15723;55.684;37.928;2023-02-26T01:49:19;24.02;;;11.27;;
28509;SDS011;15723;55.684;37.928;2023-02-26T01:54:20;22.35;;;11.30;;
28509;SDS011;15723;55.684;37.928;2023-02-26T01:57:10;22.55;;;11.35;;
28509;SDS011;15723;55.684;37.928;2023-02-26T01:59:41;29.33;;;12.95;;
28509;SDS011;15723;55.684;37.928;2023-02-26T02:02:11;20.67;;;11.38;;
28509;SDS011;15723;55.684;37.928;2023-02-26T02:04:41;26.48;;;12.82;;
28509;SDS011;15723;55.684;37.928;2023-02-26T02:07:08;20.88;;;11.48;;
28509;SDS011;15723;55.684;37.928;2023-02-26T02:09:35;24.40;;;12.23;;
28509;SDS011;15723;55.684;37.928;2023-02-26T02:24:06;31.58;;;15.90;;
28509;SDS011;15723;55.684;37.928;2023-02-26T02:34:53;28.13;;;13.45;;
28509;SDS011;15723;55.684;37.928;2023-02-26T02:37:45;48.22;;;16.55;;
28509;SDS011;15723;55.684;37.928;2023-02-26T02:45:04;36.95;;;14.07;;
28509;SDS011;15723;55.684;37.928;2023-02-26T02:47:54;40.60;;;13.35;;
28509;SDS011;15723;55.684;37.928;2023-02-26T02:50:31;48.83;;;12.45;;
28509;SDS011;15723;55.684;37.928;2023-02-26T02:53:10;28.02;;;11.18;;
28509;SDS011;15723;55.684;37.928;2023-02-26T02:55:49;172.20;;;22.38;;
28509;SDS011;15723;55.684;37.928;2023-02-26T02:58:28;32.28;;;12.63;;
28509;SDS011;15723;55.684;37.928;2023-02-26T03:01:05;38.50;;;14.13;;
28509;SDS011;15723;55.684;37.928;2023-02-26T03:03:36;31.77;;;12.38;;
28509;SDS011;15723;55.684;37.928;2023-02-26T03:06:21;27.10;;;11.60;;
28509;SDS011;15723;55.684;37.928;2023-02-26T03:08:48;29.83;;;11.25;;
28509;SDS011;15723;55.684;37.928;2023-02-26T03:11:17;22.35;;;10.65;;
28509;SDS011;15723;55.684;37.928;2023-02-26T03:13:44;22.75;;;11.13;;
28509;SDS011;15723;55.684;37.928;2023-02-26T03:19:20;40.10;;;14.07;;
28509;SDS011;15723;55.684;37.928;2023-02-26T03:22:14;28.85;;;12.18;;
28509;SDS011;15723;55.684;37.928;2023-02-26T03:27:42;23.13;;;10.93;;
28509;SDS011;15723;55.684;37.928;2023-02-26T03:30:32;24.20;;;11.38;;
28509;SDS011;15723;55.684;37.928;2023-02-26T03:33:27;23.75;;;11.48;;
28509;SDS011;15723;55.684;37.928;2023-02-26T03:36:24;31.85;;;12.80;;
28509;SDS011;15723;55.684;37.928;2023-02-26T03:39:25;21.42;;;10.27;;
28509;SDS011;15723;55.684;37.928;2023-02-26T03:41:57;30.88;;;11.90;;
28509;SDS011;15723;55.684;37.928;2023-02-26T03:44:39;23.83;;;11.60;;
28509;SDS011;15723;55.684;37.928;2023-02-26T03:47:12;55.10;;;13.70;;
28509;SDS011;15723;55.684;37.928;2023-02-26T03:50:02;43.83;;;13.57;;
28509;SDS011;15723;55.684;37.928;2023-02-26T03:55:25;27.17;;;12.27;;
28509;SDS011;15723;55.684;37.928;2023-02-26T03:58:18;22.60;;;11.45;;
28509;SDS011;15723;55.684;37.928;2023-02-26T04:00:58;26.75;;;12.75;;
28509;SDS011;15723;55.684;37.928;2023-02-26T04:06:01;21.98;;;12.02;;
28509;SDS011;15723;55.684;37.928;2023-02-26T04:08:28;25.63;;;13.38;;
28509;SDS011;15723;55.684;37.928;2023-02-26T04:10:58;25.90;;;13.07;;
28509;SDS011;15723;55.684;37.928;2023-02-26T04:13:31;31.13;;;14.45;;
28509;SDS011;15723;55.684;37.928;2023-02-26T04:15:57;26.02;;;13.82;;
28509;SDS011;15723;55.684;37.928;2023-02-26T04:18:24;49.72;;;15.95;;
28509;SDS011;15723;55.684;37.928;2023-02-26T04:20:50;35.97;;;15.93;;
28509;SDS011;15723;55.684;37.928;2023-02-26T04:23:16;28.27;;;14.35;;
28509;SDS011;15723;55.684;37.928;2023-02-26T04:25:44;158.07;;;22.20;;
28509;SDS011;15723;55.684;37.928;2023-02-26T04:28:12;30.85;;;15.93;;
28509;SDS011;15723;55.684;37.928;2023-02-26T04:30:39;22.88;;;12.95;;
28509;SDS011;15723;55.684;37.928;2023-02-26T04:33:08;19.67;;;12.18;;
28509;SDS011;15723;55.684;37.928;2023-02-26T04:35:34;23.42;;;12.75;;
28509;SDS011;15723;55.684;37.928;2023-02-26T04:38:00;21.75;;;12.35;;
28509;SDS011;15723;55.684;37.928;2023-02-26T04:40:27;23.50;;;13.20;;
28509;SDS011;15723;55.684;37.928;2023-02-26T04:42:53;22.05;;;12.63;;
28509;SDS011;15723;55.684;37.928;2023-02-26T04:45:23;22.42;;;12.95;;
28509;SDS011;15723;55.684;37.928;2023-02-26T04:47:49;21.40;;;12.25;;
28509;SDS011;15723;55.684;37.928;2023-02-26T04:50:16;20.83;;;12.25;;
28509;SDS011;15723;55.684;37.928;2023-02-26T04:52:45;19.42;;;12.30;;
28509;SDS011;15723;55.684;37.928;2023-02-26T04:55:11;19.02;;;12.18;;
28509;SDS011;15723;55.684;37.928;2023-02-26T04:57:38;17.92;;;11.55;;
28509;SDS011;15723;55.684;37.928;2023-02-26T05:00:05;14.93;;;10.57;;
28509;SDS011;15723;55.684;37.928;2023-02-26T05:02:35;15.82;;;10.38;;
28509;SDS011;15723;55.684;37.928;2023-02-26T05:05:01;12.23;;;8.32;;
28509;SDS011;15723;55.684;37.928;2023-02-26T05:07:29;19.33;;;10.50;;
28509;SDS011;15723;55.684;37.928;2023-02-26T05:09:55;12.05;;;8.30;;
28509;SDS011;15723;55.684;37.928;2023-02-26T05:12:22;15.23;;;8.35;;
28509;SDS011;15723;55.684;37.928;2023-02-26T05:14:48;13.15;;;8.48;;
28509;SDS011;15723;55.684;37.928;2023-02-26T05:17:14;11.20;;;7.35;;
28509;SDS011;15723;55.684;37.928;2023-02-26T05:19:41;13.45;;;7.65;;
28509;SDS011;15723;55.684;37.928;2023-02-26T05:22:08;11.00;;;7.13;;
28509;SDS011;15723;55.684;37.928;2023-02-26T05:24:34;10.45;;;7.28;;
28509;SDS011;15723;55.684;37.928;2023-02-26T05:27:00;12.32;;;6.63;;
28509;SDS011;15723;55.684;37.928;2023-02-26T05:29:28;7.32;;;5.10;;
28509;SDS011;15723;55.684;37.928;2023-02-26T05:31:55;7.85;;;5.55;;
28509;SDS011;15723;55.684;37.928;2023-02-26T05:34:21;6.97;;;5.45;;
28509;SDS011;15723;55.684;37.928;2023-02-26T05:36:48;10.25;;;6.25;;
28509;SDS011;15723;55.684;37.928;2023-02-26T05:39:14;9.40;;;5.50;;
28509;SDS011;15723;55.684;37.928;2023-02-26T05:41:40;7.68;;;5.32;;
28509;SDS011;15723;55.684;37.928;2023-02-26T05:44:07;6.50;;;4.82;;
28509;SDS011;15723;55.684;37.928;2023-02-26T05:46:35;8.50;;;4.97;;
28509;SDS011;15723;55.684;37.928;2023-02-26T05:49:01;4.70;;;3.72;;
28509;SDS011;15723;55.684;37.928;2023-02-26T05:51:27;5.68;;;3.45;;
28509;SDS011;15723;55.684;37.928;2023-02-26T05:53:54;4.90;;;3.35;;
28509;SDS011;15723;55.684;37.928;2023-02-26T05:56:20;3.85;;;3.40;;
28509;SDS011;15723;55.684;37.928;2023-02-26T05:58:46;3.90;;;2.60;;
28509;SDS011;15723;55.684;37.928;2023-02-26T06:01:13;2.60;;;2.33;;
28509;SDS011;15723;55.684;37.928;2023-02-26T06:06:12;4.63;;;3.05;;
28509;SDS011;15723;55.684;37.928;2023-02-26T06:08:40;4.17;;;2.50;;
28509;SDS011;15723;55.684;37.928;2023-02-26T06:11:07;5.18;;;2.50;;
28509;SDS011;15723;55.684;37.928;2023-02-26T06:13:33;1.92;;;1.70;;
28509;SDS011;15723;55.684;37.928;2023-02-26T06:15:59;1.58;;;1.48;;
28509;SDS011;15723;55.684;37.928;2023-02-26T06:18:25;2.38;;;1.67;;
28509;SDS011;15723;55.684;37.928;2023-02-26T06:20:52;3.80;;;1.67;;
28509;SDS011;15723;55.684;37.928;2023-02-26T06:23:18;3.80;;;1.83;;
28509;SDS011;15723;55.684;37.928;2023-02-26T06:25:45;3.40;;;1.58;;
28509;SDS011;15723;55.684;37.928;2023-02-26T06:28:11;1.52;;;1.30;;
28509;SDS011;15723;55.684;37.928;2023-02-26T06:30:37;1.77;;;1.63;;
28509;SDS011;15723;55.684;37.928;2023-02-26T06:33:03;3.10;;;2.08;;
28509;SDS011;15723;55.684;37.928;2023-02-26T06:35:30;3.40;;;2.45;;
28509;SDS011;15723;55.684;37.928;2023-02-26T06:37:56;2.42;;;2.10;;
28509;SDS011;15723;55.684;37.928;2023-02-26T06:40:22;2.90;;;1.83;;
28509;SDS011;15723;55.684;37.928;2023-02-26T06:42:49;4.05;;;1.92;;
28509;SDS011;15723;55.684;37.928;2023-02-26T06:45:15;3.17;;;2.35;;
28509;SDS011;15723;55.684;37.928;2023-02-26T06:47:41;2.70;;;1.85;;
28509;SDS011;15723;55.684;37.928;2023-02-26T06:50:07;1.90;;;1.70;;
28509;SDS011;15723;55.684;37.928;2023-02-26T06:52:34;2.30;;;1.90;;
28509;SDS011;15723;55.684;37.928;2023-02-26T06:55:02;2.00;;;1.73;;
28509;SDS011;15723;55.684;37.928;2023-02-26T06:57:28;2.33;;;1.92;;
28509;SDS011;15723;55.684;37.928;2023-02-26T06:59:55;3.95;;;2.13;;
28509;SDS011;15723;55.684;37.928;2023-02-26T07:02:21;2.95;;;2.03;;
28509;SDS011;15723;55.684;37.928;2023-02-26T07:04:48;2.72;;;2.40;;
28509;SDS011;15723;55.684;37.928;2023-02-26T07:07:15;2.88;;;2.25;;
28509;SDS011;15723;55.684;37.928;2023-02-26T07:09:41;3.90;;;2.90;;
28509;SDS011;15723;55.684;37.928;2023-02-26T07:12:07;3.65;;;3.00;;
28509;SDS011;15723;55.684;37.928;2023-02-26T07:14:33;4.47;;;2.75;;
28509;SDS011;15723;55.684;37.928;2023-02-26T07:17:00;4.47;;;2.97;;
28509;SDS011;15723;55.684;37.928;2023-02-26T07:19:27;3.28;;;2.92;;
28509;SDS011;15723;55.684;37.928;2023-02-26T07:21:53;5.38;;;2.83;;
28509;SDS011;15723;55.684;37.928;2023-02-26T07:24:20;3.60;;;2.90;;
28509;SDS011;15723;55.684;37.928;2023-02-26T07:26:47;5.10;;;3.15;;
28509;SDS011;15723;55.684;37.928;2023-02-26T07:29:13;4.32;;;3.13;;
28509;SDS011;15723;55.684;37.928;2023-02-26T07:31:40;3.53;;;3.20;;
28509;SDS011;15723;55.684;37.928;2023-02-26T07:34:06;6.90;;;3.70;;
28509;SDS011;15723;55.684;37.928;2023-02-26T07:36:32;3.30;;;2.95;;
28509;SDS011;15723;55.684;37.928;2023-02-26T07:39:01;4.55;;;3.58;;
28509;SDS011;15723;55.684;37.928;2023-02-26T07:41:27;5.85;;;3.60;;
28509;SDS011;15723;55.684;37.928;2023-02-26T07:43:54;4.75;;;3.58;;
28509;SDS011;15723;55.684;37.928;2023-02-26T07:46:20;6.15;;;3.15;;
28509;SDS011;15723;55.684;37.928;2023-02-26T07:48:46;4.28;;;3.17;;
28509;SDS011;15723;55.684;37.928;2023-02-26T07:51:12;5.93;;;3.35;;
28509;SDS011;15723;55.684;37.928;2023-02-26T07:53:39;5.45;;;4.03;;
28509;SDS011;15723;55.684;37.928;2023-02-26T07:56:05;5.90;;;3.53;;
28509;SDS011;15723;55.684;37.928;2023-02-26T07:58:31;7.97;;;3.40;;
28509;SDS011;15723;55.684;37.928;2023-02-26T08:00:57;6.85;;;3.53;;
28509;SDS011;15723;55.684;37.928;2023-02-26T08:03:23;5.38;;;3.17;;
28509;SDS011;15723;55.684;37.928;2023-02-26T08:05:50;4.82;;;3.67;;
28509;SDS011;15723;55.684;37.928;2023-02-26T08:08:16;3.30;;;2.85;;
28509;SDS011;15723;55.684;37.928;2023-02-26T08:10:45;3.92;;;3.00;;
28509;SDS011;15723;55.684;37.928;2023-02-26T08:13:11;4.65;;;3.95;;
28509;SDS011;15723;55.684;37.928;2023-02-26T08:15:37;5.97;;;3.05;;
28509;SDS011;15723;55.684;37.928;2023-02-26T08:18:03;7.03;;;3.30;;
28509;SDS011;15723;55.684;37.928;2023-02-26T08:20:29;6.88;;;3.47;;
28509;SDS011;15723;55.684;37.928;2023-02-26T08:22:55;4.22;;;3.35;;
28509;SDS011;15723;55.684;37.928;2023-02-26T08:25:22;4.32;;;2.60;;
28509;SDS011;15723;55.684;37.928;2023-02-26T08:27:48;3.78;;;3.00;;
28509;SDS011;15723;55.684;37.928;2023-02-26T08:30:14;4.18;;;2.80;;
28509;SDS011;15723;55.684;37.928;2023-02-26T08:32:41;6.18;;;3.33;;
28509;SDS011;15723;55.684;37.928;2023-02-26T08:35:08;4.85;;;3.08;;
28509;SDS011;15723;55.684;37.928;2023-02-26T08:37:35;3.85;;;2.83;;
28509;SDS011;15723;55.684;37.928;2023-02-26T08:40:01;4.18;;;2.70;;
28509;SDS011;15723;55.684;37.928;2023-02-26T08:42:28;3.88;;;2.95;;
28509;SDS011;15723;55.684;37.928;2023-02-26T08:44:54;3.53;;;2.60;;
28509;SDS011;15723;55.684;37.928;2023-02-26T08:47:21;5.25;;;3.15;;
28509;SDS011;15723;55.684;37.928;2023-02-26T08:49:47;6.28;;;3.30;;
28509;SDS011;15723;55.684;37.928;2023-02-26T08:52:13;5.63;;;3.40;;
28509;SDS011;15723;55.684;37.928;2023-02-26T08:54:39;5.78;;;3.53;;
28509;SDS011;15723;55.684;37.928;2023-02-26T08:57:06;4.68;;;2.63;;
28509;SDS011;15723;55.684;37.928;2023-02-26T08:59:32;4.63;;;2.80;;
28509;SDS011;15723;55.684;37.928;2023-02-26T09:01:58;3.15;;;2.35;;
28509;SDS011;15723;55.684;37.928;2023-02-26T09:04:24;3.55;;;2.42;;
28509;SDS011;15723;55.684;37.928;2023-02-26T09:06:51;2.92;;;2.25;;
28509;SDS011;15723;55.684;37.928;2023-02-26T09:09:18;5.85;;;2.25;;
28509;SDS011;15723;55.684;37.928;2023-02-26T09:11:45;2.95;;;1.60;;
28509;SDS011;15723;55.684;37.928;2023-02-26T09:14:12;2.92;;;1.50;;
28509;SDS011;15723;55.684;37.928;2023-02-26T09:16:39;2.88;;;1.70;;
28509;SDS011;15723;55.684;37.928;2023-02-26T09:19:05;2.67;;;1.80;;
28509;SDS011;15723;55.684;37.928;2023-02-26T09:21:32;2.60;;;1.80;;
28509;SDS011;15723;55.684;37.928;2023-02-26T09:24:00;2.17;;;1.88;;
28509;SDS011;15723;55.684;37.928;2023-02-26T09:26:26;1.80;;;1.65;;
28509;SDS011;15723;55.684;37.928;2023-02-26T09:28:52;3.60;;;1.30;;
28509;SDS011;15723;55.684;37.928;2023-02-26T09:31:19;2.25;;;1.40;;
28509;SDS011;15723;55.684;37.928;2023-02-26T09:33:45;2.28;;;1.10;;
28509;SDS011;15723;55.684;37.928;2023-02-26T09:36:11;3.05;;;1.60;;
28509;SDS011;15723;55.684;37.928;2023-02-26T09:38:37;4.20;;;2.67;;
28509;SDS011;15723;55.684;37.928;2023-02-26T09:41:05;4.93;;;1.40;;
28509;SDS011;15723;55.684;37.928;2023-02-26T09:46:27;3.58;;;1.63;;
28509;SDS011;15723;55.684;37.928;2023-02-26T09:49:04;3.42;;;1.70;;
28509;SDS011;15723;55.684;37.928;2023-02-26T09:51:36;2.45;;;1.50;;
28509;SDS011;15723;55.684;37.928;2023-02-26T09:54:09;3.85;;;1.92;;
28509;SDS011;15723;55.684;37.928;2023-02-26T09:56:44;2.38;;;1.80;;
28509;SDS011;15723;55.684;37.928;2023-02-26T09:59:11;1.92;;;1.65;;
28509;SDS011;15723;55.684;37.928;2023-02-26T10:01:50;1.65;;;1.55;;
28509;SDS011;15723;55.684;37.928;2023-02-26T10:09:59;1.92;;;1.52;;
28509;SDS011;15723;55.684;37.928;2023-02-26T10:12:34;1.75;;;1.38;;
28509;SDS011;15723;55.684;37.928;2023-02-26T10:15:07;3.60;;;1.95;;
28509;SDS011;15723;55.684;37.928;2023-02-26T10:20:49;3.55;;;1.90;;
28509;SDS011;15723;55.684;37.928;2023-02-26T10:23:28;2.60;;;1.80;;
28509;SDS011;15723;55.684;37.928;2023-02-26T10:26:13;2.92;;;1.80;;
28509;SDS011;15723;55.684;37.928;2023-02-26T10:28:58;2.40;;;1.60;;
28509;SDS011;15723;55.684;37.928;2023-02-26T10:39:46;3.17;;;1.55;;
28509;SDS011;15723;55.684;37.928;2023-02-26T10:42:38;2.28;;;1.70;;
28509;SDS011;15723;55.684;37.928;2023-02-26T10:48:22;2.67;;;1.70;;
28509;SDS011;15723;55.684;37.928;2023-02-26T10:51:12;2.78;;;1.83;;
28509;SDS011;15723;55.684;37.928;2023-02-26T10:53:42;3.28;;;1.73;;
28509;SDS011;15723;55.684;37.928;2023-02-26T10:56:19;2.28;;;1.67;;
28509;SDS011;15723;55.684;37.928;2023-02-26T10:58:51;2.72;;;1.73;;
28509;SDS011;15723;55.684;37.928;2023-02-26T11:01:19;2.60;;;1.48;;
28509;SDS011;15723;55.684;37.928;2023-02-26T11:03:49;2.75;;;1.63;;
28509;SDS011;15723;55.684;37.928;2023-02-26T11:06:22;3.05;;;1.95;;
28509;SDS011;15723;55.684;37.928;2023-02-26T11:08:53;2.80;;;1.90;;
28509;SDS011;15723;55.684;37.928;2023-02-26T11:11:40;2.67;;;2.00;;
28509;SDS011;15723;55.684;37.928;2023-02-26T11:14:13;2.58;;;1.85;;
28509;SDS011;15723;55.684;37.928;2023-02-26T11:16:41;3.17;;;2.55;;
28509;SDS011;15723;55.684;37.928;2023-02-26T11:19:14;4.53;;;2.15;;
28509;SDS011;15723;55.684;37.928;2023-02-26T11:21:42;4.93;;;2.97;;
28509;SDS011;15723;55.684;37.928;2023-02-26T11:24:16;4.22;;;2.53;;
28509;SDS011;15723;55.684;37.928;2023-02-26T11:27:06;4.78;;;2.25;;
28509;SDS011;15723;55.684;37.928;2023-02-26T11:29:41;2.30;;;1.95;;
28509;SDS011;15723;55.684;37.928;2023-02-26T11:32:15;3.25;;;2.03;;
28509;SDS011;15723;55.684;37.928;2023-02-26T11:34:48;2.35;;;1.80;;
28509;SDS011;15723;55.684;37.928;2023-02-26T11:37:17;3.13;;;2.60;;
28509;SDS011;15723;55.684;37.928;2023-02-26T11:39:46;3.92;;;2.35;;
28509;SDS011;15723;55.684;37.928;2023-02-26T11:42:20;3.30;;;1.63;;
28509;SDS011;15723;55.684;37.928;2023-02-26T11:44:47;3.20;;;2.35;;
28509;SDS011;15723;55.684;37.928;2023-02-26T11:47:14;3.72;;;1.95;;
28509;SDS011;15723;55.684;37.928;2023-02-26T11:49:43;5.03;;;2.45;;
28509;SDS011;15723;55.684;37.928;2023-02-26T11:52:16;3.50;;;2.40;;
28509;SDS011;15723;55.684;37.928;2023-02-26T11:54:48;3.08;;;2.35;;
28509;SDS011;15723;55.684;37.928;2023-02-26T11:57:17;4.55;;;2.47;;
28509;SDS011;15723;55.684;37.928;2023-02-26T11:59:50;5.32;;;2.47;;
28509;SDS011;15723;55.684;37.928;2023-02-26T12:02:19;4.15;;;2.42;;
28509;SDS011;15723;55.684;37.928;2023-02-26T12:04:49;3.47;;;2.42;;
28509;SDS011;15723;55.684;37.928;2023-02-26T12:07:18;2.90;;;2.03;;
28509;SDS011;15723;55.684;37.928;2023-02-26T12:09:46;4.65;;;2.50;;
28509;SDS011;15723;55.684;37.928;2023-02-26T12:20:45;5.95;;;3.08;;
28509;SDS011;15723;55.684;37.928;2023-02-26T12:26:46;3.85;;;2.58;;
28509;SDS011;15723;55.684;37.928;2023-02-26T12:29:26;2.72;;;1.90;;
28509;SDS011;15723;55.684;37.928;2023-02-26T12:43:45;4.60;;;2.20;;
28509;SDS011;15723;55.684;37.928;2023-02-26T12:46:33;6.03;;;2.72;;
28509;SDS011;15723;55.684;37.928;2023-02-26T12:49:18;4.88;;;1.85;;
28509;SDS011;15723;55.684;37.928;2023-02-26T12:52:22;6.20;;;2.60;;
28509;SDS011;15723;55.684;37.928;2023-02-26T12:57:58;4.72;;;2.80;;
28509;SDS011;15723;55.684;37.928;2023-02-26T13:06:56;7.80;;;3.80;;
28509;SDS011;15723;55.684;37.928;2023-02-26T13:10:14;5.80;;;4.05;;
28509;SDS011;15723;55.684;37.928;2023-02-26T13:15:24;7.80;;;4.50;;
28509;SDS011;15723;55.684;37.928;2023-02-26T13:18:03;11.25;;;4.70;;
28509;SDS011;15723;55.684;37.928;2023-02-26T13:20:34;6.30;;;4.20;;
28509;SDS011;15723;55.684;37.928;2023-02-26T13:23:12;7.20;;;3.70;;
28509;SDS011;15723;55.684;37.928;2023-02-26T13:25:47;9.90;;;3.53;;
28509;SDS011;15723;55.684;37.928;2023-02-26T13:28:22;5.97;;;4.20;;
28509;SDS011;15723;55.684;37.928;2023-02-26T13:31:06;5.35;;;4.03;;
28509;SDS011;15723;55.684;37.928;2023-02-26T13:33:58;6.45;;;4.43;;
28509;SDS011;15723;55.684;37.928;2023-02-26T13:36:29;5.33;;;4.47;;
28509;SDS011;15723;55.684;37.928;2023-02-26T13:39:00;8.75;;;4.22;;
28509;SDS011;15723;55.684;37.928;2023-02-26T13:41:48;7.10;;;4.47;;
28509;SDS011;15723;55.684;37.928;2023-02-26T13:44:26;10.13;;;4.60;;
28509;SDS011;15723;55.684;37.928;2023-02-26T13:50:19;8.18;;;4.00;;
28509;SDS011;15723;55.684;37.928;2023-02-26T13:53:41;6.38;;;4.32;;
28509;SDS011;15723;55.684;37.928;2023-02-26T13:56:13;7.60;;;4.82;;
28509;SDS011;15723;55.684;37.928;2023-02-26T13:58:54;5.70;;;4.20;;
28509;SDS011;15723;55.684;37.928;2023-02-26T14:01:30;6.78;;;4.88;;
28509;SDS011;15723;55.684;37.928;2023-02-26T14:04:06;5.68;;;4.60;;
28509;SDS011;15723;55.684;37.928;2023-02-26T14:19:35;8.20;;;5.63;;
28509;SDS011;15723;55.684;37.928;2023-02-26T14:22:20;8.45;;;4.70;;
28509;SDS011;15723;55.684;37.928;2023-02-26T14:32:53;8.57;;;6.13;;
28509;SDS011;15723;55.684;37.928;2023-02-26T14:35:42;20.60;;;9.95;;
28509;SDS011;15723;55.684;37.928;2023-02-26T14:38:12;39.20;;;15.95;;
28509;SDS011;15723;55.684;37.928;2023-02-26T14:40:46;29.45;;;14.32;;
28509;SDS011;15723;55.684;37.928;2023-02-26T14:43:18;23.48;;;12.05;;
28509;SDS011;15723;55.684;37.928;2023-02-26T14:45:47;13.52;;;9.27;;
28509;SDS011;15723;55.684;37.928;2023-02-26T14:48:16;13.73;;;8.85;;
28509;SDS011;15723;55.684;37.928;2023-02-26T14:56:06;10.88;;;8.02;;
28509;SDS011;15723;55.684;37.928;2023-02-26T15:04:26;20.33;;;10.88;;
28509;SDS011;15723;55.684;37.928;2023-02-26T15:15:56;14.43;;;8.52;;
28509;SDS011;15723;55.684;37.928;2023-02-26T15:18:46;14.03;;;8.80;;
28509;SDS011;15723;55.684;37.928;2023-02-26T15:21:24;12.25;;;8.70;;
28509;SDS011;15723;55.684;37.928;2023-02-26T15:24:13;12.13;;;8.18;;
28509;SDS011;15723;55.684;37.928;2023-02-26T15:26:48;13.20;;;9.43;;
28509;SDS011;15723;55.684;37.928;2023-02-26T15:29:17;14.05;;;8.50;;
28509;SDS011;15723;55.684;37.928;2023-02-26T15:31:57;13.00;;;8.73;;
28509;SDS011;15723;55.684;37.928;2023-02-26T15:34:28;13.00;;;8.90;;
28509;SDS011;15723;55.684;37.928;2023-02-26T15:36:55;13.90;;;9.50;;
28509;SDS011;15723;55.684;37.928;2023-02-26T15:39:23;15.40;;;9.25;;
28509;SDS011;15723;55.684;37.928;2023-02-26T15:41:50;15.95;;;9.38;;
28509;SDS011;15723;55.684;37.928;2023-02-26T15:44:20;13.00;;;8.80;;
28509;SDS011;15723;55.684;37.928;2023-02-26T15:47:09;12.98;;;9.10;;
28509;SDS011;15723;55.684;37.928;2023-02-26T15:49:40;14.65;;;8.60;;
28509;SDS011;15723;55.684;37.928;2023-02-26T15:52:10;14.90;;;9.25;;
28509;SDS011;15723;55.684;37.928;2023-02-26T15:54:59;14.43;;;9.75;;
28509;SDS011;15723;55.684;37.928;2023-02-26T15:57:29;15.25;;;9.40;;
28509;SDS011;15723;55.684;37.928;2023-02-26T16:00:00;14.20;;;8.68;;
28509;SDS011;15723;55.684;37.928;2023-02-26T16:02:40;16.00;;;9.32;;
28509;SDS011;15723;55.684;37.928;2023-02-26T16:05:09;14.73;;;9.35;;
28509;SDS011;15723;55.684;37.928;2023-02-26T16:07:39;15.60;;;9.13;;
28509;SDS011;15723;55.684;37.928;2023-02-26T16:10:16;12.88;;;8.20;;
28509;SDS011;15723;55.684;37.928;2023-02-26T16:12:52;13.95;;;9.40;;
28509;SDS011;15723;55.684;37.928;2023-02-26T16:15:23;14.55;;;8.77;;
28509;SDS011;15723;55.684;37.928;2023-02-26T16:18:00;19.77;;;10.73;;
28509;SDS011;15723;55.684;37.928;2023-02-26T16:20:30;15.40;;;10.13;;
28509;SDS011;15723;55.684;37.928;2023-02-26T16:23:06;14.75;;;10.00;;
28509;SDS011;15723;55.684;37.928;2023-02-26T16:25:43;16.80;;;10.02;;
28509;SDS011;15723;55.684;37.928;2023-02-26T16:28:20;16.55;;;10.60;;
28509;SDS011;15723;55.684;37.928;2023-02-26T16:30:54;16.25;;;10.48;;
28509;SDS011;15723;55.684;37.928;2023-02-26T16:33:23;16.25;;;10.82;;
28509;SDS011;15723;55.684;37.928;2023-02-26T16:35:54;17.02;;;11.00;;
28509;SDS011;15723;55.684;37.928;2023-02-26T16:38:30;14.35;;;8.82;;
28509;SDS011;15723;55.684;37.928;2023-02-26T16:41:08;14.93;;;9.40;;
28509;SDS011;15723;55.684;37.928;2023-02-26T16:46:14;14.48;;;9.57;;
28509;SDS011;15723;55.684;37.928;2023-02-26T16:48:53;15.23;;;8.77;;
28509;SDS011;15723;55.684;37.928;2023-02-26T16:51:23;16.13;;;9.27;;
28509;SDS011;15723;55.684;37.928;2023-02-26T16:54:00;15.35;;;10.10;;
28509;SDS011;15723;55.684;37.928;2023-02-26T16:56:33;13.70;;;9.75;;
28509;SDS011;15723;55.684;37.928;2023-02-26T17:01:38;18.30;;;9.93;;
28509;SDS011;15723;55.684;37.928;2023-02-26T17:04:16;14.25;;;9.07;;
28509;SDS011;15723;55.684;37.928;2023-02-26T17:06:46;14.80;;;9.50;;
28509;SDS011;15723;55.684;37.928;2023-02-26T17:12:14;16.77;;;9.27;;
28509;SDS011;15723;55.684;37.928;2023-02-26T17:14:44;12.23;;;8.30;;
28509;SDS011;15723;55.684;37.928;2023-02-26T17:17:12;13.35;;;8.00;;
28509;SDS011;15723;55.684;37.928;2023-02-26T17:19:38;12.73;;;7.75;;
28509;SDS011;15723;55.684;37.928;2023-02-26T17:22:06;15.93;;;7.43;;
28509;SDS011;15723;55.684;37.928;2023-02-26T17:24:40;13.93;;;8.70;;
28509;SDS011;15723;55.684;37.928;2023-02-26T17:27:13;12.23;;;7.43;;
28509;SDS011;15723;55.684;37.928;2023-02-26T17:29:44;16.63;;;9.07;;
28509;SDS011;15723;55.684;37.928;2023-02-26T17:32:17;12.07;;;7.85;;
28509;SDS011;15723;55.684;37.928;2023-02-26T17:34:45;13.13;;;7.97;;
28509;SDS011;15723;55.684;37.928;2023-02-26T17:37:11;13.35;;;8.30;;